Wetterdaten: Woche 25.08.08 - 31.08.08 (KW35)
Datum Zeit Temperatur Luftfeuchte Luftdruck Niederschlag Wind Richtung Sonnenschein Solar Taupunkt Windchill Windben
25.08.2008 00:00 13.7 C 88 % 1016.2 hPa 0.0 l/m 0.1 km/h (0 Bft) O-SO 0.00 h 0 W/m 11.7 C 13.7 C 1.1 km/h (0 Bft)
25.08.2008 01:00 13.9 C 87 % 1015.9 hPa 0.0 l/m 0.0 km/h (0 Bft) N 0.00 h 0 W/m 11.8 C 13.9 C 0.3 km/h (0 Bft)
25.08.2008 02:00 13.9 C 89 % 1015.8 hPa 0.0 l/m 0.3 km/h (0 Bft) O-SO 0.00 h 0 W/m 12.1 C 13.9 C 0.7 km/h (0 Bft)
25.08.2008 03:00 13.5 C 92 % 1015.8 hPa 0.0 l/m 0.1 km/h (0 Bft) O-SO 0.00 h 0 W/m 12.2 C 13.5 C 0.4 km/h (0 Bft)
25.08.2008 04:00 13.1 C 93 % 1015.9 hPa 0.0 l/m 1.1 km/h (1 Bft) O-SO 0.00 h 0 W/m 12.0 C 13.1 C 2.0 km/h (1 Bft)
25.08.2008 05:00 13.2 C 94 % 1016.0 hPa 0.0 l/m 0.1 km/h (0 Bft) O-SO 0.00 h 0 W/m 12.3 C 13.2 C 0.5 km/h (0 Bft)
25.08.2008 06:00 13.3 C 94 % 1016.2 hPa 0.0 l/m 0.1 km/h (0 Bft) O-SO 0.00 h 7 W/m 12.3 C 13.3 C 0.3 km/h (0 Bft)
25.08.2008 07:00 13.4 C 95 % 1016.8 hPa 0.0 l/m 0.0 km/h (0 Bft) N 0.00 h 48 W/m 12.6 C 13.4 C 0.3 km/h (0 Bft)
25.08.2008 08:00 14.6 C 91 % 1017.3 hPa 0.0 l/m 0.2 km/h (0 Bft) O-SO 0.17 h 139 W/m 13.1 C 14.6 C 0.9 km/h (0 Bft)
25.08.2008 09:00 15.6 C 87 % 1017.7 hPa 0.0 l/m 0.9 km/h (0 Bft) W-NW 0.00 h 206 W/m 13.4 C 15.6 C 2.2 km/h (1 Bft)
25.08.2008 10:00 16.5 C 83 % 1017.9 hPa 0.0 l/m 0.4 km/h (0 Bft) W-NW 0.00 h 213 W/m 13.5 C 16.5 C 1.4 km/h (1 Bft)
25.08.2008 11:00 18.0 C 79 % 1018.1 hPa 0.0 l/m 1.1 km/h (1 Bft) W-NW 0.27 h 394 W/m 14.2 C 18.0 C 3.0 km/h (1 Bft)
25.08.2008 12:00 20.0 C 68 % 1017.7 hPa 0.0 l/m 1.6 km/h (1 Bft) O-SO 1.00 h 732 W/m 14.0 C 20.0 C 3.7 km/h (1 Bft)
25.08.2008 13:00 21.7 C 61 % 1017.4 hPa 0.0 l/m 2.0 km/h (1 Bft) SO 1.00 h 818 W/m 13.9 C 21.7 C 4.4 km/h (1 Bft)
25.08.2008 14:00 22.8 C 57 % 1017.2 hPa 0.0 l/m 3.3 km/h (1 Bft) W 1.00 h 760 W/m 13.7 C 22.8 C 6.1 km/h (2 Bft)
25.08.2008 15:00 23.9 C 53 % 1017.1 hPa 0.0 l/m 5.0 km/h (1 Bft) W 1.00 h 664 W/m 13.7 C 23.9 C 8.7 km/h (2 Bft)
25.08.2008 16:00 24.2 C 50 % 1017.0 hPa 0.0 l/m 6.9 km/h (2 Bft) W 1.00 h 549 W/m 13.2 C 24.2 C 10.9 km/h (2 Bft)
25.08.2008 17:00 24.4 C 51 % 1017.1 hPa 0.0 l/m 6.0 km/h (2 Bft) W 1.00 h 398 W/m 13.6 C 24.4 C 9.4 km/h (2 Bft)
25.08.2008 18:00 23.4 C 54 % 1017.3 hPa 0.0 l/m 9.3 km/h (2 Bft) W 1.00 h 231 W/m 13.6 C 23.4 C 14.4 km/h (3 Bft)
25.08.2008 19:00 22.1 C 59 % 1017.8 hPa 0.0 l/m 5.8 km/h (2 Bft) W-NW 0.55 h 72 W/m 13.7 C 22.1 C 9.4 km/h (2 Bft)
25.08.2008 20:00 20.0 C 65 % 1018.8 hPa 0.0 l/m 5.2 km/h (1 Bft) W 0.03 h 10 W/m 13.2 C 20.0 C 8.4 km/h (2 Bft)
25.08.2008 21:00 19.5 C 66 % 1019.7 hPa 0.0 l/m 8.4 km/h (2 Bft) W 0.00 h 0 W/m 13.1 C 19.5 C 13.3 km/h (3 Bft)
25.08.2008 22:00 18.7 C 73 % 1020.1 hPa 0.0 l/m 2.5 km/h (1 Bft) NW 0.00 h 0 W/m 13.7 C 18.7 C 5.0 km/h (1 Bft)
25.08.2008 23:00 18.1 C 76 % 1020.3 hPa 0.0 l/m 0.7 km/h (0 Bft) N-NW 0.00 h 0 W/m 13.8 C 18.1 C 2.2 km/h (1 Bft)
26.08.2008 00:00 17.8 C 78 % 1020.4 hPa 0.0 l/m 0.3 km/h (0 Bft) O-NO 0.00 h 0 W/m 13.8 C 17.8 C 1.1 km/h (1 Bft)
26.08.2008 01:00 17.3 C 81 % 1020.5 hPa 0.0 l/m 2.5 km/h (1 Bft) O-SO 0.00 h 0 W/m 14.0 C 17.3 C 4.1 km/h (1 Bft)
26.08.2008 02:00 16.9 C 85 % 1020.6 hPa 0.0 l/m 0.7 km/h (0 Bft) O-SO 0.00 h 0 W/m 14.4 C 16.9 C 1.6 km/h (1 Bft)
26.08.2008 03:00 16.7 C 87 % 1020.8 hPa 0.0 l/m 0.0 km/h (0 Bft) N 0.00 h 0 W/m 14.6 C 16.7 C 0.1 km/h (0 Bft)
26.08.2008 04:00 16.2 C 89 % 1020.8 hPa 0.0 l/m 0.0 km/h (0 Bft) N 0.00 h 0 W/m 14.4 C 16.2 C 0.0 km/h (0 Bft)
26.08.2008 05:00 15.7 C 92 % 1021.2 hPa 0.0 l/m 0.1 km/h (0 Bft) O-SO 0.00 h 0 W/m 14.4 C 15.7 C 0.6 km/h (0 Bft)
26.08.2008 06:00 15.2 C 94 % 1021.5 hPa 0.0 l/m 0.0 km/h (0 Bft) O-SO 0.00 h 10 W/m 14.2 C 15.2 C 0.1 km/h (0 Bft)
26.08.2008 07:00 15.4 C 93 % 1022.0 hPa 0.0 l/m 0.0 km/h (0 Bft) N 0.00 h 50 W/m 14.3 C 15.4 C 0.5 km/h (0 Bft)
26.08.2008 08:00 16.9 C 88 % 1022.5 hPa 0.0 l/m 0.5 km/h (0 Bft) N 0.73 h 184 W/m 14.9 C 16.9 C 1.3 km/h (1 Bft)
26.08.2008 09:00 18.8 C 80 % 1022.5 hPa 0.0 l/m 1.2 km/h (1 Bft) N-NW 1.00 h 334 W/m 15.3 C 18.8 C 2.9 km/h (1 Bft)
26.08.2008 10:00 20.4 C 73 % 1022.5 hPa 0.0 l/m 2.0 km/h (1 Bft) N-NW 1.00 h 476 W/m 15.5 C 20.4 C 3.9 km/h (1 Bft)
26.08.2008 11:00 21.8 C 68 % 1022.5 hPa 0.0 l/m 1.5 km/h (1 Bft) O-SO 0.97 h 604 W/m 15.5 C 21.8 C 3.7 km/h (1 Bft)
26.08.2008 12:00 22.7 C 63 % 1022.0 hPa 0.0 l/m 2.4 km/h (1 Bft) O-SO 0.95 h 677 W/m 15.2 C 22.7 C 5.0 km/h (1 Bft)
26.08.2008 13:00 23.6 C 60 % 1021.9 hPa 0.0 l/m 2.1 km/h (1 Bft) SO 1.00 h 695 W/m 15.4 C 23.6 C 4.9 km/h (1 Bft)
26.08.2008 14:00 24.4 C 57 % 1021.6 hPa 0.0 l/m 3.1 km/h (1 Bft) O-SO 0.98 h 689 W/m 15.1 C 24.4 C 5.6 km/h (1 Bft)
26.08.2008 15:00 25.8 C 54 % 1021.2 hPa 0.0 l/m 3.6 km/h (1 Bft) W 1.00 h 666 W/m 15.7 C 25.8 C 6.0 km/h (2 Bft)
26.08.2008 16:00 25.8 C 51 % 1021.2 hPa 0.0 l/m 3.3 km/h (1 Bft) W 0.85 h 500 W/m 15.0 C 25.8 C 6.1 km/h (2 Bft)
26.08.2008 17:00 25.3 C 55 % 1021.2 hPa 0.0 l/m 4.4 km/h (1 Bft) W 0.78 h 324 W/m 15.6 C 25.3 C 7.2 km/h (2 Bft)
26.08.2008 18:00 24.7 C 57 % 1021.2 hPa 0.0 l/m 5.0 km/h (1 Bft) W-NW 1.00 h 222 W/m 15.6 C 24.7 C 7.9 km/h (2 Bft)
26.08.2008 19:00 23.3 C 61 % 1021.2 hPa 0.0 l/m 3.9 km/h (1 Bft) W-NW 0.57 h 79 W/m 15.4 C 23.3 C 6.5 km/h (2 Bft)
26.08.2008 20:00 21.4 C 65 % 1021.3 hPa 0.0 l/m 0.4 km/h (0 Bft) W 0.12 h 11 W/m 14.6 C 21.4 C 1.2 km/h (1 Bft)
26.08.2008 21:00 19.1 C 77 % 1021.7 hPa 0.0 l/m 0.9 km/h (0 Bft) W 0.00 h 0 W/m 15.0 C 19.1 C 1.9 km/h (1 Bft)
26.08.2008 22:00 17.7 C 84 % 1022.0 hPa 0.0 l/m 1.5 km/h (1 Bft) O-SO 0.00 h 0 W/m 14.9 C 17.7 C 3.0 km/h (1 Bft)
26.08.2008 23:00 16.9 C 87 % 1022.2 hPa 0.0 l/m 0.5 km/h (0 Bft) O 0.00 h 0 W/m 14.6 C 16.9 C 1.4 km/h (1 Bft)
27.08.2008 00:00 16.1 C 89 % 1022.3 hPa 0.0 l/m 0.1 km/h (0 Bft) O 0.00 h 0 W/m 14.4 C 16.1 C 1.0 km/h (0 Bft)
27.08.2008 01:00 15.4 C 91 % 1022.4 hPa 0.0 l/m 0.1 km/h (0 Bft) O 0.00 h 0 W/m 14.0 C 15.4 C 1.0 km/h (0 Bft)
27.08.2008 02:00 14.9 C 94 % 1022.2 hPa 0.0 l/m 0.1 km/h (0 Bft) O 0.00 h 0 W/m 13.9 C 14.9 C 0.5 km/h (0 Bft)
27.08.2008 03:00 14.4 C 95 % 1022.0 hPa 0.0 l/m 0.7 km/h (0 Bft) O 0.00 h 0 W/m 13.6 C 14.4 C 1.8 km/h (1 Bft)
27.08.2008 04:00 14.0 C 95 % 1021.9 hPa 0.0 l/m 0.0 km/h (0 Bft) N 0.00 h 0 W/m 13.3 C 14.0 C 0.7 km/h (0 Bft)
27.08.2008 05:00 13.3 C 96 % 1021.9 hPa 0.0 l/m 0.2 km/h (0 Bft) O 0.00 h 0 W/m 12.6 C 13.3 C 1.2 km/h (1 Bft)
27.08.2008 06:00 12.8 C 97 % 1022.1 hPa 0.0 l/m 0.5 km/h (0 Bft) O 0.03 h 9 W/m 12.4 C 12.8 C 1.7 km/h (1 Bft)
27.08.2008 07:00 12.9 C 97 % 1022.2 hPa 0.0 l/m 0.2 km/h (0 Bft) O 0.05 h 35 W/m 12.4 C 12.9 C 0.6 km/h (0 Bft)
27.08.2008 08:00 14.9 C 92 % 1022.1 hPa 0.0 l/m 0.1 km/h (0 Bft) O 1.00 h 206 W/m 13.7 C 14.9 C 0.4 km/h (0 Bft)
27.08.2008 09:00 17.7 C 81 % 1022.1 hPa 0.0 l/m 0.8 km/h (0 Bft) O 1.00 h 363 W/m 14.4 C 17.7 C 2.3 km/h (1 Bft)
27.08.2008 10:00 19.7 C 72 % 1022.1 hPa 0.0 l/m 1.6 km/h (1 Bft) N-NO 1.00 h 524 W/m 14.6 C 19.7 C 3.3 km/h (1 Bft)
27.08.2008 11:00 22.0 C 66 % 1021.9 hPa 0.0 l/m 1.9 km/h (1 Bft) W-NW 1.00 h 641 W/m 15.4 C 22.0 C 3.7 km/h (1 Bft)
27.08.2008 12:00 23.6 C 62 % 1021.3 hPa 0.0 l/m 3.1 km/h (1 Bft) N-NW 1.00 h 722 W/m 15.8 C 23.6 C 5.5 km/h (1 Bft)
27.08.2008 13:00 24.7 C 55 % 1020.8 hPa 0.0 l/m 4.1 km/h (1 Bft) O-SO 1.00 h 759 W/m 15.1 C 24.7 C 7.1 km/h (2 Bft)
27.08.2008 14:00 25.9 C 52 % 1020.4 hPa 0.0 l/m 2.0 km/h (1 Bft) W 1.00 h 725 W/m 15.3 C 25.9 C 4.4 km/h (1 Bft)
27.08.2008 15:00 26.2 C 50 % 1019.9 hPa 0.0 l/m 3.4 km/h (1 Bft) O-SO 1.00 h 651 W/m 14.8 C 26.2 C 6.1 km/h (2 Bft)
27.08.2008 16:00 27.1 C 49 % 1019.4 hPa 0.0 l/m 2.9 km/h (1 Bft) W-NW 1.00 h 541 W/m 15.3 C 27.1 C 5.1 km/h (1 Bft)
27.08.2008 17:00 26.9 C 48 % 1019.1 hPa 0.0 l/m 3.0 km/h (1 Bft) W-NW 1.00 h 384 W/m 15.0 C 26.9 C 5.4 km/h (1 Bft)
27.08.2008 18:00 26.0 C 51 % 1018.9 hPa 0.0 l/m 4.3 km/h (1 Bft) W-NW 0.97 h 212 W/m 15.1 C 26.0 C 7.0 km/h (2 Bft)
27.08.2008 19:00 24.4 C 57 % 1018.9 hPa 0.0 l/m 5.1 km/h (1 Bft) W 0.22 h 54 W/m 15.2 C 24.4 C 7.8 km/h (2 Bft)
27.08.2008 20:00 22.1 C 66 % 1019.2 hPa 0.0 l/m 2.7 km/h (1 Bft) O-SO 0.08 h 10 W/m 15.3 C 22.1 C 4.9 km/h (1 Bft)
27.08.2008 21:00 20.0 C 75 % 1019.7 hPa 0.0 l/m 3.1 km/h (1 Bft) O-SO 0.00 h 0 W/m 15.4 C 20.0 C 4.4 km/h (1 Bft)
27.08.2008 22:00 18.2 C 83 % 1020.1 hPa 0.0 l/m 3.1 km/h (1 Bft) O-SO 0.00 h 0 W/m 15.3 C 18.2 C 4.2 km/h (1 Bft)
27.08.2008 23:00 17.3 C 86 % 1020.3 hPa 0.0 l/m 1.3 km/h (1 Bft) O-SO 0.00 h 0 W/m 14.9 C 17.3 C 2.8 km/h (1 Bft)
28.08.2008 00:00 16.7 C 88 % 1020.1 hPa 0.0 l/m 0.8 km/h (0 Bft) O-SO 0.00 h 0 W/m 14.7 C 16.7 C 2.1 km/h (1 Bft)
28.08.2008 01:00 15.8 C 92 % 1019.9 hPa 0.0 l/m 0.5 km/h (0 Bft) O-SO 0.00 h 0 W/m 14.5 C 15.8 C 1.4 km/h (1 Bft)
28.08.2008 02:00 15.1 C 94 % 1019.8 hPa 0.0 l/m 1.3 km/h (1 Bft) O-SO 0.00 h 0 W/m 14.1 C 15.1 C 2.2 km/h (1 Bft)
28.08.2008 03:00 14.7 C 96 % 1019.7 hPa 0.0 l/m 0.5 km/h (0 Bft) O-SO 0.00 h 0 W/m 14.0 C 14.7 C 1.1 km/h (1 Bft)
28.08.2008 04:00 14.3 C 97 % 1019.6 hPa 0.0 l/m 0.4 km/h (0 Bft) O-SO 0.00 h 0 W/m 13.8 C 14.3 C 1.4 km/h (1 Bft)
28.08.2008 05:00 14.0 C 97 % 1019.5 hPa 0.0 l/m 0.1 km/h (0 Bft) O-SO 0.00 h 0 W/m 13.5 C 14.0 C 0.6 km/h (0 Bft)
28.08.2008 06:00 13.6 C 98 % 1019.6 hPa 0.0 l/m 0.0 km/h (0 Bft) O-SO 0.02 h 10 W/m 13.3 C 13.6 C 0.5 km/h (0 Bft)
28.08.2008 07:00 14.0 C 98 % 1020.0 hPa 0.0 l/m 0.1 km/h (0 Bft) O-SO 0.08 h 57 W/m 13.7 C 14.0 C 0.3 km/h (0 Bft)
28.08.2008 08:00 15.3 C 95 % 1020.4 hPa 0.0 l/m 1.2 km/h (1 Bft) N 0.12 h 106 W/m 14.6 C 15.3 C 3.2 km/h (1 Bft)
28.08.2008 09:00 16.2 C 93 % 1020.5 hPa 0.0 l/m 1.0 km/h (0 Bft) N-NW 0.00 h 145 W/m 15.1 C 16.2 C 2.7 km/h (1 Bft)
28.08.2008 10:00 17.9 C 87 % 1020.5 hPa 0.0 l/m 3.3 km/h (1 Bft) N-NW 0.35 h 316 W/m 15.8 C 17.9 C 6.0 km/h (2 Bft)
28.08.2008 11:00 20.1 C 80 % 1020.1 hPa 0.0 l/m 4.9 km/h (1 Bft) N-NW 0.85 h 592 W/m 16.6 C 20.1 C 7.8 km/h (2 Bft)
28.08.2008 12:00 22.1 C 75 % 1019.7 hPa 0.0 l/m 6.2 km/h (2 Bft) N-NW 1.00 h 684 W/m 17.4 C 22.1 C 9.6 km/h (2 Bft)
28.08.2008 13:00 23.9 C 68 % 1019.1 hPa 0.0 l/m 5.5 km/h (1 Bft) N 1.00 h 723 W/m 17.6 C 23.9 C 8.6 km/h (2 Bft)
28.08.2008 14:00 24.5 C 63 % 1018.7 hPa 0.0 l/m 8.3 km/h (2 Bft) W 1.00 h 713 W/m 16.9 C 24.5 C 13.3 km/h (3 Bft)
28.08.2008 15:00 24.9 C 61 % 1018.5 hPa 0.0 l/m 8.0 km/h (2 Bft) W 1.00 h 641 W/m 16.8 C 24.9 C 13.5 km/h (3 Bft)
28.08.2008 16:00 25.0 C 60 % 1017.9 hPa 0.0 l/m 9.9 km/h (2 Bft) W 1.00 h 527 W/m 16.6 C 25.0 C 16.3 km/h (3 Bft)
28.08.2008 17:00 24.7 C 59 % 1017.7 hPa 0.0 l/m 9.7 km/h (2 Bft) W 1.00 h 391 W/m 16.2 C 24.7 C 16.1 km/h (3 Bft)
28.08.2008 18:00 23.9 C 59 % 1017.7 hPa 0.0 l/m 7.8 km/h (2 Bft) W 1.00 h 229 W/m 15.5 C 23.9 C 13.2 km/h (3 Bft)
28.08.2008 19:00 22.3 C 65 % 1017.9 hPa 0.0 l/m 4.4 km/h (1 Bft) W 0.50 h 68 W/m 15.4 C 22.3 C 8.5 km/h (2 Bft)
28.08.2008 20:00 20.1 C 74 % 1018.4 hPa 0.0 l/m 2.5 km/h (1 Bft) W-SW 0.03 h 8 W/m 15.4 C 20.1 C 5.3 km/h (1 Bft)
28.08.2008 21:00 19.3 C 78 % 1018.9 hPa 0.0 l/m 0.5 km/h (0 Bft) N 0.00 h 0 W/m 15.3 C 19.3 C 1.5 km/h (1 Bft)
28.08.2008 22:00 18.2 C 83 % 1019.2 hPa 0.0 l/m 0.2 km/h (0 Bft) O 0.00 h 0 W/m 15.2 C 18.2 C 1.4 km/h (1 Bft)
28.08.2008 23:00 17.1 C 88 % 1019.4 hPa 0.0 l/m 1.4 km/h (1 Bft) O 0.00 h 0 W/m 15.0 C 17.1 C 3.1 km/h (1 Bft)
29.08.2008 00:00 16.1 C 92 % 1019.6 hPa 0.0 l/m 0.9 km/h (0 Bft) O-SO 0.00 h 0 W/m 14.8 C 16.1 C 1.5 km/h (1 Bft)
29.08.2008 01:00 15.4 C 95 % 1019.6 hPa 0.0 l/m 0.1 km/h (0 Bft) O-SO 0.00 h 0 W/m 14.7 C 15.4 C 0.6 km/h (0 Bft)
29.08.2008 02:00 14.8 C 97 % 1019.2 hPa 0.0 l/m 0.1 km/h (0 Bft) O-SO 0.00 h 0 W/m 14.2 C 14.8 C 0.4 km/h (0 Bft)
29.08.2008 03:00 14.2 C 97 % 1019.1 hPa 0.0 l/m 0.0 km/h (0 Bft) O-SO 0.00 h 0 W/m 13.7 C 14.2 C 0.3 km/h (0 Bft)
29.08.2008 04:00 13.8 C 97 % 1019.0 hPa 0.0 l/m 0.1 km/h (0 Bft) O-SO 0.00 h 0 W/m 13.3 C 13.8 C 0.8 km/h (0 Bft)
29.08.2008 05:00 14.2 C 97 % 1018.7 hPa 0.0 l/m 1.2 km/h (1 Bft) N-NW 0.00 h 0 W/m 13.7 C 14.2 C 2.8 km/h (1 Bft)
29.08.2008 06:00 14.5 C 97 % 1019.1 hPa 0.0 l/m 1.2 km/h (1 Bft) W-NW 0.00 h 5 W/m 14.0 C 14.5 C 3.0 km/h (1 Bft)
29.08.2008 07:00 14.5 C 95 % 1019.4 hPa 0.0 l/m 1.3 km/h (1 Bft) W-NW 0.00 h 33 W/m 13.7 C 14.5 C 3.5 km/h (1 Bft)
29.08.2008 08:00 15.3 C 92 % 1019.7 hPa 0.0 l/m 2.1 km/h (1 Bft) W-NW 0.00 h 105 W/m 14.0 C 15.3 C 4.4 km/h (1 Bft)
29.08.2008 09:00 16.4 C 87 % 1019.5 hPa 0.0 l/m 1.5 km/h (1 Bft) W-NW 0.00 h 190 W/m 14.2 C 16.4 C 3.6 km/h (1 Bft)
29.08.2008 10:00 17.7 C 82 % 1019.5 hPa 0.0 l/m 0.9 km/h (0 Bft) W-NW 0.00 h 258 W/m 14.6 C 17.7 C 2.2 km/h (1 Bft)
29.08.2008 11:00 19.2 C 78 % 1019.4 hPa 0.0 l/m 2.0 km/h (1 Bft) O-SO 0.72 h 396 W/m 15.2 C 19.2 C 4.0 km/h (1 Bft)
29.08.2008 12:00 20.6 C 73 % 1019.0 hPa 0.0 l/m 1.4 km/h (1 Bft) SO 0.57 h 492 W/m 15.6 C 20.6 C 3.6 km/h (1 Bft)
29.08.2008 13:00 21.9 C 69 % 1018.8 hPa 0.0 l/m 2.2 km/h (1 Bft) SO 0.85 h 664 W/m 16.0 C 21.9 C 4.8 km/h (1 Bft)
29.08.2008 14:00 23.3 C 65 % 1018.2 hPa 0.0 l/m 2.2 km/h (1 Bft) W 1.00 h 666 W/m 16.3 C 23.3 C 4.3 km/h (1 Bft)
29.08.2008 15:00 23.8 C 63 % 1017.6 hPa 0.0 l/m 2.1 km/h (1 Bft) O-SO 1.00 h 631 W/m 16.2 C 23.8 C 4.5 km/h (1 Bft)
29.08.2008 16:00 24.3 C 63 % 1017.0 hPa 0.0 l/m 1.8 km/h (1 Bft) O-SO 1.00 h 505 W/m 16.7 C 24.3 C 3.9 km/h (1 Bft)
29.08.2008 17:00 24.6 C 61 % 1016.5 hPa 0.0 l/m 1.7 km/h (1 Bft) O-SO 1.00 h 357 W/m 16.6 C 24.6 C 3.7 km/h (1 Bft)
29.08.2008 18:00 24.1 C 63 % 1016.2 hPa 0.0 l/m 1.3 km/h (1 Bft) O-SO 1.00 h 187 W/m 16.5 C 24.1 C 3.0 km/h (1 Bft)
29.08.2008 19:00 22.8 C 68 % 1016.3 hPa 0.0 l/m 1.7 km/h (1 Bft) O-SO 0.10 h 51 W/m 16.6 C 22.8 C 3.4 km/h (1 Bft)
29.08.2008 20:00 20.8 C 77 % 1016.9 hPa 0.0 l/m 2.1 km/h (1 Bft) O-SO 0.05 h 8 W/m 16.7 C 20.8 C 3.1 km/h (1 Bft)
29.08.2008 21:00 18.8 C 85 % 1017.6 hPa 0.0 l/m 1.7 km/h (1 Bft) O-SO 0.00 h 0 W/m 16.3 C 18.8 C 2.7 km/h (1 Bft)
29.08.2008 22:00 17.8 C 88 % 1018.2 hPa 0.0 l/m 0.6 km/h (0 Bft) O-SO 0.00 h 0 W/m 15.8 C 17.8 C 1.6 km/h (1 Bft)
29.08.2008 23:00 17.1 C 90 % 1018.4 hPa 0.0 l/m 0.6 km/h (0 Bft) O-SO 0.00 h 0 W/m 15.5 C 17.1 C 1.4 km/h (1 Bft)
30.08.2008 00:00 16.8 C 92 % 1018.5 hPa 0.0 l/m 0.1 km/h (0 Bft) O-SO 0.00 h 0 W/m 15.5 C 16.8 C 0.4 km/h (0 Bft)
30.08.2008 01:00 16.2 C 90 % 1018.2 hPa 0.0 l/m 0.1 km/h (0 Bft) O-SO 0.00 h 0 W/m 14.6 C 16.2 C 0.9 km/h (0 Bft)
30.08.2008 02:00 16.1 C 87 % 1018.0 hPa 0.0 l/m 0.3 km/h (0 Bft) N-NO 0.00 h 0 W/m 14.0 C 16.1 C 1.5 km/h (1 Bft)
30.08.2008 03:00 15.6 C 87 % 1018.0 hPa 0.0 l/m 0.3 km/h (0 Bft) O 0.00 h 0 W/m 13.4 C 15.6 C 1.7 km/h (1 Bft)
30.08.2008 04:00 14.4 C 90 % 1017.7 hPa 0.0 l/m 1.1 km/h (1 Bft) O-SO 0.00 h 0 W/m 12.9 C 14.4 C 2.7 km/h (1 Bft)
30.08.2008 05:00 13.6 C 93 % 1017.5 hPa 0.0 l/m 2.5 km/h (1 Bft) O-SO 0.00 h 0 W/m 12.6 C 13.6 C 4.0 km/h (1 Bft)
30.08.2008 06:00 13.2 C 94 % 1017.3 hPa 0.0 l/m 2.1 km/h (1 Bft) O-SO 0.00 h 0 W/m 12.2 C 13.2 C 3.8 km/h (1 Bft)
30.08.2008 07:00 13.3 C 94 % 1017.8 hPa 0.0 l/m 0.3 km/h (0 Bft) O-SO 0.00 h 8 W/m 12.4 C 13.3 C 1.1 km/h (1 Bft)
30.08.2008 08:00 15.3 C 89 % 1017.9 hPa 0.0 l/m 0.6 km/h (0 Bft) SO 0.63 h 141 W/m 13.4 C 15.3 C 1.7 km/h (1 Bft)
30.08.2008 09:00 17.5 C 78 % 1017.9 hPa 0.0 l/m 2.8 km/h (1 Bft) O-SO 1.00 h 343 W/m 13.7 C 17.5 C 5.5 km/h (1 Bft)
30.08.2008 10:00 19.2 C 75 % 1017.8 hPa 0.0 l/m 3.4 km/h (1 Bft) O-SO 1.00 h 501 W/m 14.5 C 19.2 C 6.4 km/h (2 Bft)
30.08.2008 11:00 20.9 C 71 % 1017.6 hPa 0.0 l/m 4.8 km/h (1 Bft) O-SO 1.00 h 627 W/m 15.4 C 20.9 C 8.1 km/h (2 Bft)
30.08.2008 12:00 22.5 C 66 % 1017.0 hPa 0.0 l/m 6.5 km/h (2 Bft) O-SO 1.00 h 705 W/m 15.9 C 22.5 C 10.5 km/h (2 Bft)
30.08.2008 13:00 23.9 C 63 % 1016.5 hPa 0.0 l/m 5.4 km/h (1 Bft) O-SO 1.00 h 736 W/m 16.4 C 23.9 C 9.4 km/h (2 Bft)
30.08.2008 14:00 24.9 C 59 % 1015.8 hPa 0.0 l/m 8.9 km/h (2 Bft) O-SO 1.00 h 716 W/m 16.3 C 24.9 C 13.7 km/h (3 Bft)
30.08.2008 15:00 25.6 C 55 % 1015.2 hPa 0.0 l/m 8.9 km/h (2 Bft) O-SO 1.00 h 646 W/m 15.9 C 25.6 C 14.0 km/h (3 Bft)
30.08.2008 16:00 26.0 C 53 % 1014.7 hPa 0.0 l/m 9.3 km/h (2 Bft) O-SO 1.00 h 529 W/m 15.5 C 26.0 C 14.0 km/h (3 Bft)
30.08.2008 17:00 26.0 C 53 % 1014.4 hPa 0.0 l/m 8.1 km/h (2 Bft) O-SO 1.00 h 379 W/m 15.6 C 26.0 C 12.1 km/h (2 Bft)
30.08.2008 18:00 25.5 C 55 % 1014.3 hPa 0.0 l/m 5.2 km/h (1 Bft) O-SO 1.00 h 211 W/m 15.6 C 25.5 C 7.8 km/h (2 Bft)
30.08.2008 19:00 24.3 C 58 % 1014.4 hPa 0.0 l/m 1.6 km/h (1 Bft) O-SO 0.50 h 57 W/m 15.6 C 24.3 C 3.1 km/h (1 Bft)
30.08.2008 20:00 21.7 C 68 % 1014.5 hPa 0.0 l/m 1.1 km/h (0 Bft) O-SO 0.02 h 7 W/m 15.6 C 21.7 C 2.1 km/h (1 Bft)
30.08.2008 21:00 19.5 C 77 % 1015.0 hPa 0.0 l/m 0.9 km/h (0 Bft) O-SO 0.00 h 0 W/m 15.4 C 19.5 C 1.8 km/h (1 Bft)
30.08.2008 22:00 17.8 C 84 % 1015.2 hPa 0.0 l/m 0.3 km/h (0 Bft) O-SO 0.00 h 0 W/m 15.1 C 17.8 C 1.1 km/h (0 Bft)
30.08.2008 23:00 17.3 C 87 % 1015.4 hPa 0.0 l/m 0.2 km/h (0 Bft) O-SO 0.00 h 0 W/m 15.0 C 17.3 C 0.9 km/h (0 Bft)
31.08.2008 00:00 16.2 C 90 % 1015.3 hPa 0.0 l/m 0.1 km/h (0 Bft) O-SO 0.00 h 0 W/m 14.6 C 16.2 C 0.7 km/h (0 Bft)
31.08.2008 01:00 15.8 C 92 % 1014.9 hPa 0.0 l/m 0.6 km/h (0 Bft) O-SO 0.00 h 0 W/m 14.5 C 15.8 C 1.6 km/h (1 Bft)
31.08.2008 02:00 15.1 C 93 % 1014.8 hPa 0.0 l/m 1.3 km/h (1 Bft) O-SO 0.00 h 0 W/m 13.9 C 15.1 C 2.6 km/h (1 Bft)
31.08.2008 03:00 14.6 C 94 % 1014.7 hPa 0.0 l/m 0.5 km/h (0 Bft) O-SO 0.00 h 0 W/m 13.6 C 14.6 C 1.2 km/h (1 Bft)
31.08.2008 04:00 14.0 C 95 % 1014.4 hPa 0.0 l/m 0.0 km/h (0 Bft) O-SO 0.00 h 0 W/m 13.3 C 14.0 C 0.3 km/h (0 Bft)
31.08.2008 05:00 13.6 C 97 % 1014.3 hPa 0.0 l/m 0.2 km/h (0 Bft) O-SO 0.00 h 0 W/m 13.1 C 13.6 C 0.9 km/h (0 Bft)
31.08.2008 06:00 13.4 C 97 % 1014.5 hPa 0.0 l/m 0.5 km/h (0 Bft) O-SO 0.05 h 9 W/m 12.9 C 13.4 C 1.1 km/h (1 Bft)
31.08.2008 07:00 13.5 C 98 % 1014.9 hPa 0.0 l/m 0.2 km/h (0 Bft) O-SO 0.02 h 46 W/m 13.2 C 13.5 C 0.8 km/h (0 Bft)
31.08.2008 08:00 15.4 C 92 % 1015.2 hPa 0.0 l/m 0.2 km/h (0 Bft) W 0.60 h 173 W/m 14.1 C 15.4 C 0.5 km/h (0 Bft)
31.08.2008 09:00 17.0 C 86 % 1015.3 hPa 0.0 l/m 0.6 km/h (0 Bft) W 0.18 h 205 W/m 14.6 C 17.0 C 1.8 km/h (1 Bft)
31.08.2008 10:00 18.7 C 82 % 1015.5 hPa 0.0 l/m 0.3 km/h (0 Bft) W 0.60 h 413 W/m 15.5 C 18.7 C 1.5 km/h (1 Bft)
31.08.2008 11:00 20.9 C 76 % 1015.3 hPa 0.0 l/m 1.3 km/h (1 Bft) SO 0.23 h 355 W/m 16.6 C 20.9 C 3.2 km/h (1 Bft)
31.08.2008 12:00 22.5 C 73 % 1015.2 hPa 0.0 l/m 1.5 km/h (1 Bft) SO 0.72 h 530 W/m 17.5 C 22.5 C 3.9 km/h (1 Bft)
31.08.2008 13:00 23.4 C 72 % 1014.8 hPa 0.0 l/m 1.7 km/h (1 Bft) S-SO 0.15 h 335 W/m 18.2 C 23.4 C 4.1 km/h (1 Bft)
31.08.2008 14:00 25.4 C 67 % 1014.4 hPa 0.0 l/m 2.6 km/h (1 Bft) S-SO 0.77 h 558 W/m 18.8 C 25.4 C 6.1 km/h (2 Bft)
31.08.2008 15:00 25.7 C 61 % 1014.1 hPa 0.0 l/m 1.8 km/h (1 Bft) S-SO 0.62 h 454 W/m 17.5 C 25.7 C 4.3 km/h (1 Bft)
31.08.2008 16:00 26.2 C 58 % 1013.7 hPa 0.0 l/m 1.8 km/h (1 Bft) S-SO 0.40 h 330 W/m 17.3 C 26.2 C 4.4 km/h (1 Bft)
31.08.2008 17:00 26.9 C 55 % 1013.3 hPa 0.0 l/m 2.3 km/h (1 Bft) W-SW 0.95 h 346 W/m 17.1 C 26.9 C 5.0 km/h (1 Bft)
31.08.2008 18:00 26.3 C 56 % 1013.2 hPa 0.0 l/m 1.2 km/h (1 Bft) S 0.67 h 160 W/m 16.9 C 26.3 C 3.3 km/h (1 Bft)
31.08.2008 19:00 23.9 C 67 % 1013.3 hPa 0.0 l/m 1.1 km/h (0 Bft) O-SO 0.00 h 13 W/m 17.3 C 23.9 C 2.1 km/h (1 Bft)
31.08.2008 20:00 21.2 C 79 % 1013.5 hPa 0.0 l/m 3.5 km/h (1 Bft) O-SO 0.00 h 5 W/m 17.3 C 21.2 C 4.9 km/h (1 Bft)
31.08.2008 21:00 19.9 C 84 % 1014.3 hPa 0.0 l/m 0.9 km/h (0 Bft) O-SO 0.00 h 0 W/m 17.1 C 19.9 C 1.8 km/h (1 Bft)
31.08.2008 22:00 18.9 C 88 % 1014.7 hPa 0.0 l/m 0.4 km/h (0 Bft) O-SO 0.00 h 0 W/m 16.8 C 18.9 C 1.0 km/h (0 Bft)
31.08.2008 23:00 18.7 C 89 % 1014.8 hPa 0.0 l/m 1.6 km/h (1 Bft) O-SO 0.00 h 0 W/m 16.9 C 18.7 C 2.7 km/h (1 Bft)
Min-Datum _ 27.08.08 27.08.08 31.08.08 - 25.08.08 - - - 25.08.08 27.08.08 25.08.08
_ Min-Zeit 06:55 17:03 17:30 - 00:00 - - - 00:00 07:04 00:00
Minimum _ 12.6 C 44 % 1013.1 hPa - 0.0 km/h (0 Bft) - - - 11.6 C 12.6 C 0.0 km/h (0 Bft)
Max-Datum _ 27.08.08 28.08.08 26.08.08 25.08.08 28.08.08 - 25.08.08 31.08.08 31.08.08 27.08.08 28.08.08
_ Max-Zeit 16:42 07:20 08:30 00:00 15:32 - 08:29 14:01 14:48 16:41 17:25
Maximum _ 27.6 C 99 % 1022.6 hPa 0.0 l/m 17.4 km/h
W (3 Bft)
- 0.02 h 926 W/m 19.9 C 27.6 C 27.8 km/h
W (4 Bft)
Durchschnitt _ 19.1 C 78 % 1018.4 hPa #0.0 l/m 2.1 km/h (1 Bft) O-SO #63:39 h 345 W/m 14.8 C 19.1 C 3.9 km/h (1 Bft)
© Kaiko 2008